Time;durP1;ratioP1;P1;durP2;ratioP2;P2;SDS_P1;SDS_P2;PMS_P1;PMS_P2;Temp;Humidity;BMP_temperature;BMP_pressure;BME280_temperature;BME280_humidity;BME280_pressure;Samples;Min_cycle;Max_cycle;Signal;HPM_P1;HPM_P2
2020/12/05 00:04:01;;;;;;;22.55;17.33;;;;;;;5.04;64.51;97774.22;9825538;28;20377;-69
2020/12/05 00:09:02;;;;;;;22.35;18.02;;;;;;;5.09;64.45;97773.78;9829883;28;20057;-69
2020/12/05 00:14:04;;;;;;;20.77;17.60;;;;;;;5.09;65.21;97776.44;9827269;28;20050;-70
2020/12/05 00:19:05;;;;;;;22.38;17.50;;;;;;;5.08;65.38;97764.22;9827934;28;24671;-70
2020/12/05 00:24:07;;;;;;;24.83;19.52;;;;;;;5.18;65.56;97764.97;9831607;28;20223;-71
2020/12/05 00:29:08;;;;;;;21.40;17.52;;;;;;;5.12;66.05;97755.03;9851096;28;20054;-70
2020/12/05 00:34:10;;;;;;;20.13;17.63;;;;;;;5.08;66.02;97780.03;9845218;28;20064;-69
2020/12/05 00:39:11;;;;;;;22.15;18.63;;;;;;;5.11;65.83;97791.09;9832336;28;23163;-68
2020/12/05 00:44:12;;;;;;;21.45;17.42;;;;;;;5.16;65.80;97806.47;9820361;28;20423;-69
2020/12/05 00:49:14;;;;;;;22.00;16.85;;;;;;;5.18;65.71;97803.69;9830979;28;20057;-69
2020/12/05 00:54:15;;;;;;;21.90;16.70;;;;;;;4.85;66.80;97792.78;9824788;28;20050;-69
2020/12/05 00:59:17;;;;;;;19.80;15.73;;;;;;;4.91;66.36;97781.69;9830415;28;20050;-70
2020/12/05 01:04:18;;;;;;;22.38;17.15;;;;;;;4.87;66.71;97794.31;9844082;28;22225;-69
2020/12/05 01:09:19;;;;;;;20.88;16.58;;;;;;;4.42;68.68;97797.72;9822394;28;20069;-70
2020/12/05 01:14:21;;;;;;;23.33;18.38;;;;;;;4.68;69.68;97824.22;9824040;28;20262;-70
2020/12/05 01:19:22;;;;;;;22.55;18.95;;;;;;;4.62;69.94;97818.72;9824653;28;20069;-71
2020/12/05 01:24:23;;;;;;;23.92;18.40;;;;;;;4.74;70.59;97821.03;9830264;28;20751;-70
2020/12/05 01:29:24;;;;;;;21.25;17.98;;;;;;;4.78;70.13;97827.66;9841502;28;20486;-72
2020/12/05 01:34:26;;;;;;;24.80;18.67;;;;;;;4.75;70.45;97833.22;9843410;28;20133;-69
2020/12/05 01:39:28;;;;;;;22.33;19.13;;;;;;;4.66;70.98;97849.06;9827135;28;20069;-71
2020/12/05 01:44:31;;;;;;;22.23;17.48;;;;;;;4.62;69.81;97863.50;9839779;28;20085;-70
2020/12/05 01:49:33;;;;;;;23.38;18.67;;;;;;;4.53;70.37;97859.94;9840280;28;20093;-70
2020/12/05 01:54:35;;;;;;;19.80;17.38;;;;;;;4.64;70.66;97857.13;9837481;28;20069;-70
2020/12/05 01:59:37;;;;;;;20.83;16.70;;;;;;;4.59;70.79;97854.06;9839772;28;20070;-70
2020/12/05 02:04:55;;;;;;;23.30;18.15;;;;;;;4.50;72.37;97871.56;9816338;28;20574;-70
2020/12/05 02:09:57;;;;;;;22.10;17.30;;;;;;;4.54;71.76;97854.50;9827595;28;20054;-69
2020/12/05 02:15:11;;;;;;;23.52;18.10;;;;;;;4.56;71.22;97847.31;9828206;28;20050;-69
2020/12/05 02:20:13;;;;;;;22.13;18.30;;;;;;;4.31;72.31;97842.66;9831554;28;20046;-69
2020/12/05 02:25:14;;;;;;;22.13;18.42;;;;;;;4.11;72.44;97852.41;9828946;28;20860;-70
2020/12/05 02:30:16;;;;;;;21.73;17.65;;;;;;;3.85;74.36;97860.91;9828659;28;20415;-69
2020/12/05 02:35:17;;;;;;;21.95;18.08;;;;;;;4.02;73.90;97861.97;9825571;28;20058;-69
2020/12/05 02:40:18;;;;;;;24.23;18.92;;;;;;;4.15;73.29;97877.50;9840145;28;20060;-69
2020/12/05 02:45:20;;;;;;;20.55;17.77;;;;;;;4.07;73.06;97878.19;9839697;28;20050;-70
2020/12/05 02:50:21;;;;;;;23.27;17.65;;;;;;;4.04;73.32;97881.13;9833685;28;20590;-70
2020/12/05 02:55:23;;;;;;;21.85;18.65;;;;;;;3.95;73.75;97887.19;9830727;28;20089;-70
2020/12/05 03:00:24;;;;;;;21.70;17.83;;;;;;;3.99;74.60;97902.56;9827356;28;20061;-70
2020/12/05 03:05:26;;;;;;;25.40;19.20;;;;;;;4.07;73.70;97907.16;9820823;28;20106;-69
2020/12/05 03:10:28;;;;;;;23.05;20.27;;;;;;;4.11;74.11;97919.06;9823678;28;20046;-70
2020/12/05 03:15:29;;;;;;;23.38;18.33;;;;;;;4.07;74.18;97913.25;9824113;28;20076;-71
2020/12/05 03:20:31;;;;;;;22.05;19.00;;;;;;;4.16;73.72;97903.69;9855153;28;20121;-73
2020/12/05 03:25:32;;;;;;;22.60;19.38;;;;;;;4.13;73.60;97917.13;9855771;28;20068;-71
2020/12/05 03:30:34;;;;;;;24.42;19.08;;;;;;;4.10;73.84;97950.78;9836646;28;20467;-69
2020/12/05 03:35:35;;;;;;;23.42;18.98;;;;;;;3.95;74.26;97976.69;9815229;28;20058;-71
2020/12/05 03:40:37;;;;;;;28.23;20.67;;;;;;;3.97;75.10;97980.03;9839627;28;20108;-70
2020/12/05 03:45:38;;;;;;;23.98;20.02;;;;;;;3.87;75.21;97995.81;9816357;28;20061;-71
2020/12/05 03:50:40;;;;;;;22.70;18.10;;;;;;;3.88;75.44;98013.28;9838247;28;20068;-71
2020/12/05 03:55:41;;;;;;;27.48;20.20;;;;;;;3.82;76.06;98009.38;9836994;28;20066;-70
2020/12/05 04:00:42;;;;;;;25.15;19.42;;;;;;;3.82;75.70;98004.13;9823235;28;20145;-70
2020/12/05 04:05:43;;;;;;;23.23;19.15;;;;;;;3.81;75.78;98020.88;9820284;28;20081;-70
2020/12/05 04:10:45;;;;;;;23.58;19.25;;;;;;;3.80;76.43;98034.16;9813435;28;20141;-69
2020/12/05 04:15:46;;;;;;;24.23;18.73;;;;;;;3.77;76.45;98042.31;9809949;28;20078;-70
2020/12/05 04:20:47;;;;;;;25.17;19.88;;;;;;;3.85;76.60;98060.91;9822963;28;20050;-71
2020/12/05 04:25:49;;;;;;;24.50;19.23;;;;;;;3.70;76.28;98066.53;9838592;28;20141;-70
2020/12/05 04:30:50;;;;;;;24.42;19.48;;;;;;;3.57;75.99;98063.31;9825105;28;20093;-69
2020/12/05 04:35:51;;;;;;;28.13;20.77;;;;;;;3.54;76.47;98069.69;9834036;28;21669;-70
2020/12/05 04:40:59;;;;;;;26.35;20.33;;;;;;;3.59;76.18;98066.66;9823832;28;20050;-69
2020/12/05 04:46:02;;;;;;;23.33;18.50;;;;;;;3.58;76.70;98106.25;9832985;28;24193;-70
2020/12/05 04:51:04;;;;;;;26.10;20.35;;;;;;;3.62;76.75;98119.00;9833157;28;20061;-69
2020/12/05 04:56:06;;;;;;;21.55;18.77;;;;;;;3.59;77.33;98118.41;9817011;28;20054;-69
2020/12/05 05:01:09;;;;;;;22.83;19.60;;;;;;;3.64;77.12;98111.00;9839366;28;21390;-71
2020/12/05 05:06:21;;;;;;;23.15;19.20;;;;;;;3.60;76.58;98109.56;9828661;28;20058;-69
2020/12/05 05:11:26;;;;;;;27.83;20.55;;;;;;;3.53;77.10;98099.59;9826634;28;20588;-70
2020/12/05 05:16:28;;;;;;;21.83;15.77;;;;;;;3.48;77.12;98095.69;9825725;28;20054;-69
2020/12/05 05:21:38;;;;;;;24.10;19.02;;;;;;;3.59;77.09;98078.97;9854273;28;20055;-71
2020/12/05 05:26:41;;;;;;;26.65;20.88;;;;;;;3.49;77.02;98135.00;9852794;28;20561;-69
2020/12/05 05:32:07;;;;;;;26.42;20.73;;;;;;;3.51;78.01;98153.28;9812937;28;20124;-70
2020/12/05 05:37:13;;;;;;;24.92;20.55;;;;;;;3.54;78.16;98203.84;9820424;28;20141;-69
2020/12/05 05:42:27;;;;;;;28.50;20.17;;;;;;;3.59;77.87;98250.81;9826616;28;25763;-69
2020/12/05 05:47:29;;;;;;;26.40;20.77;;;;;;;3.62;78.35;98266.34;9814268;28;20112;-69
2020/12/05 05:52:30;;;;;;;26.98;19.58;;;;;;;3.50;78.81;98278.72;9812865;28;20046;-70
2020/12/05 05:57:32;;;;;;;26.80;19.98;;;;;;;3.48;78.93;98259.63;9836511;28;20141;-70
2020/12/05 06:02:39;;;;;;;23.38;18.80;;;;;;;3.65;79.21;98273.16;9829610;28;20159;-71
2020/12/05 06:07:43;;;;;;;26.33;19.52;;;;;;;3.68;79.02;98265.84;9839669;28;20228;-70
2020/12/05 06:12:44;;;;;;;27.80;22.02;;;;;;;3.68;79.41;98260.56;9839838;28;20054;-73
2020/12/05 06:17:47;;;;;;;25.38;20.20;;;;;;;3.59;79.90;98256.09;9836267;28;20058;-69
2020/12/05 06:23:00;;;;;;;29.95;22.80;;;;;;;3.71;79.64;98262.13;9986792;28;20039;-67
2020/12/05 06:28:03;;;;;;;29.50;21.63;;;;;;;3.79;79.68;98267.56;9813331;28;20058;-70
2020/12/05 06:33:05;;;;;;;25.52;19.98;;;;;;;3.83;79.14;98273.41;9826474;28;20047;-68
2020/12/05 06:38:16;;;;;;;27.52;21.52;;;;;;;3.89;79.19;98284.25;9821643;28;20062;-67
2020/12/05 06:43:17;;;;;;;28.35;22.42;;;;;;;3.96;79.17;98310.06;9803681;28;20056;-68
2020/12/05 06:48:19;;;;;;;24.83;19.67;;;;;;;3.87;78.95;98338.84;9794286;28;20060;-68
2020/12/05 06:53:20;;;;;;;27.30;21.02;;;;;;;3.87;78.55;98330.94;9829727;28;20124;-71
2020/12/05 06:58:26;;;;;;;25.35;19.25;;;;;;;3.82;78.87;98325.22;9820777;28;20058;-70
2020/12/05 07:03:31;;;;;;;28.48;22.10;;;;;;;3.94;78.47;98338.31;9809339;28;20128;-69
2020/12/05 07:08:36;;;;;;;26.92;22.35;;;;;;;3.93;78.45;98347.16;9803661;28;20054;-68
2020/12/05 07:13:55;;;;;;;29.00;22.00;;;;;;;3.92;78.41;98388.47;9811082;28;20153;-68
2020/12/05 07:18:58;;;;;;;28.10;21.75;;;;;;;3.96;78.77;98386.41;9828156;28;20409;-71
2020/12/05 07:24:00;;;;;;;24.52;21.92;;;;;;;3.98;77.75;98387.09;9796552;28;20061;-69
2020/12/05 07:29:02;;;;;;;26.45;21.50;;;;;;;4.01;78.13;98411.41;9801002;28;20054;-70
2020/12/05 07:34:04;;;;;;;35.08;28.65;;;;;;;4.01;78.03;98429.00;9798718;28;20562;-70
2020/12/05 07:39:05;;;;;;;35.75;32.35;;;;;;;4.01;77.88;98447.44;9805227;28;20046;-71
2020/12/05 07:44:07;;;;;;;28.35;24.85;;;;;;;4.02;78.35;98456.97;9802229;28;20053;-69
2020/12/05 07:49:11;;;;;;;24.80;22.20;;;;;;;3.97;78.34;98464.44;9790223;28;20068;-69
2020/12/05 07:54:13;;;;;;;24.70;20.13;;;;;;;3.97;78.28;98446.00;9793274;28;20058;-69
2020/12/05 07:59:14;;;;;;;22.73;19.77;;;;;;;4.00;78.06;98422.06;9800746;28;22364;-69
2020/12/05 08:04:35;;;;;;;26.95;19.75;;;;;;;4.07;77.59;98457.44;9805411;28;20058;-68
2020/12/05 08:09:38;;;;;;;25.27;20.10;;;;;;;4.04;78.15;98481.41;9799475;28;20695;-68
2020/12/05 08:14:44;;;;;;;27.55;20.88;;;;;;;4.04;78.54;98513.00;9812953;28;20161;-69
2020/12/05 08:19:45;;;;;;;34.10;23.85;;;;;;;4.06;79.59;98484.75;9795132;28;20087;-70
2020/12/05 08:24:51;;;;;;;31.40;23.08;;;;;;;4.13;80.91;98488.56;9821869;28;21300;-70
2020/12/05 08:29:55;;;;;;;33.50;24.65;;;;;;;4.22;81.22;98489.59;9806473;28;20058;-70
2020/12/05 08:35:03;;;;;;;31.48;23.17;;;;;;;4.36;81.06;98497.16;10022152;28;20420;-72
2020/12/05 08:40:05;;;;;;;29.65;23.92;;;;;;;4.46;80.92;98507.81;9815960;28;20058;-70
2020/12/05 08:45:17;;;;;;;29.80;23.42;;;;;;;4.49;81.51;98507.53;9805971;28;20054;-69
2020/12/05 08:50:30;;;;;;;31.13;22.73;;;;;;;4.59;81.27;98507.59;9799902;28;21709;-69
2020/12/05 08:55:32;;;;;;;33.72;25.23;;;;;;;4.69;81.30;98526.13;9801808;28;24050;-69
2020/12/05 09:00:35;;;;;;;27.83;23.20;;;;;;;4.75;80.46;98533.53;9821553;28;20061;-69
2020/12/05 09:05:54;;;;;;;27.67;21.25;;;;;;;4.79;79.93;98534.94;9804403;28;20051;-70
2020/12/05 09:10:59;;;;;;;26.90;21.08;;;;;;;4.84;79.17;98531.91;9804445;28;20073;-69
2020/12/05 09:16:02;;;;;;;29.13;22.08;;;;;;;4.84;79.03;98532.75;9814920;28;20050;-71
2020/12/05 09:21:14;;;;;;;33.80;24.55;;;;;;;4.85;78.83;98534.41;9823463;28;20054;-69
2020/12/05 09:26:15;;;;;;;31.05;22.40;;;;;;;4.95;78.70;98556.41;9807140;28;24704;-69
2020/12/05 09:31:16;;;;;;;27.08;20.75;;;;;;;4.90;78.88;98569.13;9797016;28;20061;-69
2020/12/05 09:36:18;;;;;;;26.67;20.10;;;;;;;4.93;78.33;98573.31;9792234;28;20049;-69
2020/12/05 09:41:19;;;;;;;25.55;21.02;;;;;;;4.92;78.79;98569.00;9806688;28;20069;-71
2020/12/05 09:46:20;;;;;;;25.55;21.02;;;;;;;4.92;77.88;98580.41;9769649;28;21145;-70
2020/12/05 09:51:22;;;;;;;24.23;20.38;;;;;;;4.85;78.48;98568.69;9771382;28;20054;-72
2020/12/05 09:56:23;;;;;;;26.98;20.83;;;;;;;4.88;78.66;98572.84;9818526;28;20101;-71
2020/12/05 10:01:29;;;;;;;26.63;21.35;;;;;;;5.07;78.40;98551.06;9797484;28;20424;-71
2020/12/05 10:06:30;;;;;;;25.20;20.52;;;;;;;5.23;77.03;98564.59;9790362;28;24369;-69
2020/12/05 10:11:31;;;;;;;21.35;18.77;;;;;;;5.38;77.13;98561.63;9798412;28;20062;-69
2020/12/05 10:16:33;;;;;;;26.50;20.48;;;;;;;5.62;77.08;98570.06;9805637;28;20061;-69
2020/12/05 10:21:35;;;;;;;21.95;18.98;;;;;;;5.80;76.47;98556.22;9805190;28;20059;-70
2020/12/05 10:26:36;;;;;;;18.85;16.48;;;;;;;5.97;76.04;98558.22;9798360;28;20525;-70
2020/12/05 10:31:37;;;;;;;18.95;16.92;;;;;;;6.12;76.23;98569.25;9802359;28;24800;-69
2020/12/05 10:36:39;;;;;;;18.10;14.07;;;;;;;6.08;75.82;98559.94;9794608;28;20055;-69
2020/12/05 10:41:41;;;;;;;18.35;16.38;;;;;;;6.21;76.88;98580.81;9801124;28;20054;-67
2020/12/05 10:46:50;;;;;;;20.27;18.08;;;;;;;6.50;75.16;98580.84;9820214;28;20051;-70
2020/12/05 10:51:51;;;;;;;22.80;20.45;;;;;;;6.36;75.44;98595.31;9809411;28;20054;-72
2020/12/05 10:56:52;;;;;;;20.50;18.27;;;;;;;6.51;75.32;98590.44;9799397;28;20506;-71
2020/12/05 11:01:55;;;;;;;21.42;19.08;;;;;;;6.36;74.82;98584.75;9811605;28;20060;-68
2020/12/05 11:06:56;;;;;;;22.20;19.90;;;;;;;6.00;76.10;98594.13;9814455;28;20057;-67
2020/12/05 11:11:58;;;;;;;21.27;17.98;;;;;;;5.99;75.18;98597.72;9801201;28;21433;-70
2020/12/05 11:16:59;;;;;;;23.15;20.38;;;;;;;5.91;75.19;98595.72;9808282;28;20438;-70
2020/12/05 11:22:00;;;;;;;20.50;18.05;;;;;;;5.82;75.27;98615.00;9808786;28;20528;-71
2020/12/05 11:27:01;;;;;;;21.35;17.73;;;;;;;6.11;75.01;98623.06;9798460;28;20112;-69
2020/12/05 11:32:03;;;;;;;21.15;17.50;;;;;;;6.15;75.02;98616.53;9815708;28;20065;-68
2020/12/05 11:37:04;;;;;;;18.60;16.60;;;;;;;6.04;74.95;98627.22;9812310;28;20138;-66
2020/12/05 11:42:05;;;;;;;19.35;17.27;;;;;;;6.03;75.97;98604.41;9803212;28;22827;-69
2020/12/05 11:47:07;;;;;;;21.02;17.98;;;;;;;6.06;75.63;98632.38;9835472;28;20065;-70
2020/12/05 11:52:08;;;;;;;17.63;15.73;;;;;;;5.96;76.24;98661.34;9812281;28;20050;-68
2020/12/05 11:57:09;;;;;;;18.02;16.00;;;;;;;5.97;76.14;98679.72;9814309;28;20057;-70
2020/12/05 12:02:11;;;;;;;18.58;15.20;;;;;;;6.04;76.04;98674.78;9805457;28;20078;-71
2020/12/05 12:07:13;;;;;;;19.20;15.90;;;;;;;6.11;76.30;98659.22;9812613;28;20501;-67
2020/12/05 12:12:14;;;;;;;15.27;13.32;;;;;;;6.01;76.12;98654.72;9805634;28;20049;-68
2020/12/05 12:17:15;;;;;;;14.77;13.32;;;;;;;5.99;76.75;98659.31;9821975;28;20502;-68
2020/12/05 12:22:17;;;;;;;13.10;11.60;;;;;;;6.04;76.38;98671.31;9804589;28;20074;-68
2020/12/05 12:27:18;;;;;;;13.00;11.80;;;;;;;6.07;76.66;98658.66;9807452;28;20050;-68
2020/12/05 12:32:19;;;;;;;14.68;13.20;;;;;;;6.21;75.96;98654.78;9807698;28;20079;-68
2020/12/05 12:37:21;;;;;;;12.40;11.30;;;;;;;6.23;75.89;98658.16;9798392;28;20509;-69
2020/12/05 12:42:27;;;;;;;12.48;11.23;;;;;;;6.22;75.64;98640.63;9800449;28;21711;-69
2020/12/05 12:52:33;;;;;;;12.80;10.63;;;;;;;6.15;76.05;98655.34;9828992;28;20057;-68
2020/12/05 12:57:36;;;;;;;11.90;10.70;;;;;;;6.19;76.05;98667.31;9809594;28;20141;-68
2020/12/05 13:02:37;;;;;;;11.43;9.60;;;;;;;6.15;76.16;98665.91;9826971;28;20058;-70
2020/12/05 13:07:39;;;;;;;12.00;10.80;;;;;;;6.15;76.50;98671.19;9810863;28;20054;-68
2020/12/05 13:12:40;;;;;;;11.38;9.45;;;;;;;6.16;76.29;98667.59;9819438;28;20059;-68
2020/12/05 13:17:41;;;;;;;10.50;9.38;;;;;;;6.16;76.02;98675.50;9815557;28;20546;-68
2020/12/05 13:22:43;;;;;;;11.57;8.95;;;;;;;6.12;76.12;98687.31;9812151;28;20061;-72
2020/12/05 13:27:44;;;;;;;10.35;9.35;;;;;;;6.01;75.43;98686.44;9806310;28;20520;-67
2020/12/05 13:32:45;;;;;;;9.77;8.20;;;;;;;5.99;75.77;98698.09;9812051;28;20060;-70
2020/12/05 13:37:47;;;;;;;10.27;9.32;;;;;;;6.01;75.86;98691.72;9803048;28;20049;-69
2020/12/05 13:42:48;;;;;;;9.30;8.32;;;;;;;5.99;75.14;98717.44;10043059;28;20050;-68
2020/12/05 13:47:49;;;;;;;9.23;7.88;;;;;;;5.99;75.73;98712.16;10315013;28;20171;-68
2020/12/05 13:52:51;;;;;;;9.70;8.63;;;;;;;5.88;75.12;98722.75;10317469;28;20054;-69
2020/12/05 13:57:52;;;;;;;7.85;7.05;;;;;;;5.81;75.17;98721.59;10316099;28;20138;-69
2020/12/05 14:02:53;;;;;;;7.22;6.28;;;;;;;5.73;75.49;98709.06;10309167;28;20054;-69
2020/12/05 14:07:54;;;;;;;8.30;7.50;;;;;;;5.67;75.09;98720.13;10312387;28;20606;-68
2020/12/05 14:12:56;;;;;;;8.48;7.38;;;;;;;5.60;75.58;98711.91;10312624;28;20058;-69
2020/12/05 14:17:57;;;;;;;7.88;6.88;;;;;;;5.64;75.55;98715.97;10315260;28;20042;-68
2020/12/05 14:22:59;;;;;;;7.32;6.63;;;;;;;5.64;75.16;98715.97;10313615;28;20050;-66
2020/12/05 14:28:00;;;;;;;8.35;6.90;;;;;;;5.68;74.95;98708.63;10312241;28;20047;-69
2020/12/05 14:33:01;;;;;;;7.65;6.95;;;;;;;5.68;75.73;98699.88;10317728;28;20065;-70
2020/12/05 14:38:03;;;;;;;6.65;6.00;;;;;;;5.65;75.48;98696.50;9967097;28;20153;-68
2020/12/05 14:43:04;;;;;;;8.98;8.07;;;;;;;5.56;75.69;98693.81;9815276;28;20106;-68
2020/12/05 14:48:06;;;;;;;7.80;7.00;;;;;;;5.55;76.10;98707.97;9823410;28;20054;-68
2020/12/05 14:53:08;;;;;;;8.43;7.43;;;;;;;5.48;76.21;98710.31;10071160;28;20050;-69
2020/12/05 14:58:09;;;;;;;8.93;8.02;;;;;;;5.46;76.41;98693.75;10335633;28;20113;-70
2020/12/05 15:03:12;;;;;;;8.77;7.97;;;;;;;5.44;76.11;98716.81;10312839;28;20058;-70
2020/12/05 15:08:13;;;;;;;9.30;8.40;;;;;;;5.40;75.92;98715.38;10310555;28;20070;-69
2020/12/05 15:13:32;;;;;;;9.82;8.80;;;;;;;5.28;76.37;98723.38;10044562;28;20054;-70
2020/12/05 15:18:33;;;;;;;9.55;8.63;;;;;;;5.22;77.11;98723.84;9751319;28;22002;-69
2020/12/05 15:23:35;;;;;;;11.15;9.25;;;;;;;5.21;76.78;98713.44;9803284;28;20046;-70
2020/12/05 15:28:36;;;;;;;9.77;8.82;;;;;;;5.21;77.22;98714.28;9798179;28;20073;-70
2020/12/05 15:33:37;;;;;;;12.93;8.93;;;;;;;5.19;76.80;98705.66;9795634;28;20065;-73
2020/12/05 15:38:39;;;;;;;9.95;8.95;;;;;;;5.16;76.67;98726.19;9807403;28;20055;-68
2020/12/05 15:43:41;;;;;;;9.77;8.85;;;;;;;5.14;77.07;98734.22;9803238;28;20074;-71
2020/12/05 15:48:43;;;;;;;12.05;9.40;;;;;;;5.07;76.80;98733.03;9810336;28;20236;-70
2020/12/05 15:53:44;;;;;;;11.50;10.30;;;;;;;5.12;76.82;98736.16;9803650;28;20077;-70
2020/12/05 15:58:46;;;;;;;11.88;10.43;;;;;;;5.02;76.73;98700.94;9800411;28;20058;-67
2020/12/05 16:03:47;;;;;;;12.57;11.07;;;;;;;5.08;76.71;98718.91;9790864;28;20489;-68
2020/12/05 16:08:48;;;;;;;11.13;10.07;;;;;;;5.12;76.31;98715.88;9806668;28;20058;-68
2020/12/05 16:13:49;;;;;;;15.40;13.77;;;;;;;5.07;76.49;98733.03;9798805;28;20050;-69
2020/12/05 16:18:51;;;;;;;11.77;10.43;;;;;;;4.93;76.89;98724.44;9809356;28;20057;-68
2020/12/05 16:23:52;;;;;;;11.77;10.57;;;;;;;4.91;76.88;98723.75;9808946;28;20287;-69
2020/12/05 16:28:55;;;;;;;11.60;10.40;;;;;;;4.85;77.13;98729.53;9809107;28;20059;-68
2020/12/05 16:33:56;;;;;;;12.25;11.02;;;;;;;4.84;77.42;98740.19;9815292;28;20057;-70
2020/12/05 16:38:58;;;;;;;12.40;11.10;;;;;;;4.90;77.31;98743.16;9817996;28;20054;-70
2020/12/05 16:43:59;;;;;;;13.05;11.75;;;;;;;4.88;76.97;98747.72;9806161;28;24962;-68
2020/12/05 16:49:00;;;;;;;13.52;12.23;;;;;;;4.79;77.42;98751.13;9820750;28;20059;-70
2020/12/05 16:54:02;;;;;;;11.90;10.70;;;;;;;4.77;76.92;98758.28;9829019;28;20058;-69
2020/12/05 16:59:03;;;;;;;14.40;12.18;;;;;;;4.77;77.17;98758.28;9816540;28;21830;-68
2020/12/05 17:04:04;;;;;;;15.23;13.68;;;;;;;4.81;77.77;98749.19;9809274;28;22315;-68
2020/12/05 17:09:05;;;;;;;14.35;12.85;;;;;;;4.81;77.72;98733.38;9805651;28;20062;-67
2020/12/05 17:19:23;;;;;;;15.02;13.40;;;;;;;4.83;77.77;98734.06;9904746;23;20896;-71
2020/12/05 17:24:25;;;;;;;15.65;14.07;;;;;;;4.78;78.52;98734.44;9703329;28;20105;-70
2020/12/05 17:29:26;;;;;;;16.98;15.30;;;;;;;4.81;78.20;98737.81;9712351;28;20278;-70
2020/12/05 17:34:27;;;;;;;16.05;14.40;;;;;;;4.71;78.71;98733.25;9736987;28;20143;-74
2020/12/05 17:39:29;;;;;;;15.65;14.00;;;;;;;4.71;78.64;98716.63;9723697;28;20125;-71
2020/12/05 17:44:31;;;;;;;14.15;12.73;;;;;;;4.76;78.74;98733.75;9740339;28;20075;-68
2020/12/05 17:49:32;;;;;;;16.70;14.93;;;;;;;4.83;78.42;98726.16;9714517;28;20055;-73
2020/12/05 17:54:33;;;;;;;15.85;14.30;;;;;;;4.81;78.26;98720.19;9728357;28;20059;-71
2020/12/05 17:59:36;;;;;;;15.68;14.05;;;;;;;4.87;78.32;98724.13;9720377;28;20047;-71
2020/12/05 18:04:37;;;;;;;15.15;13.55;;;;;;;4.83;77.83;98712.16;9716494;28;20126;-73
2020/12/05 18:09:39;;;;;;;14.63;13.13;;;;;;;4.83;77.81;98728.78;9725478;28;20062;-71
2020/12/05 18:14:40;;;;;;;14.63;13.07;;;;;;;4.82;77.37;98740.31;9733115;28;20067;-71
2020/12/05 18:19:41;;;;;;;15.00;13.40;;;;;;;4.77;77.64;98731.94;9722514;28;20066;-70
2020/12/05 18:24:43;;;;;;;14.30;12.80;;;;;;;4.79;77.42;98727.38;9700538;28;24686;-71
2020/12/05 18:29:44;;;;;;;14.80;13.18;;;;;;;4.87;77.48;98738.13;9699504;28;20062;-72
2020/12/05 18:34:46;;;;;;;15.57;14.05;;;;;;;4.88;77.05;98724.00;9696134;28;20069;-72
2020/12/05 18:39:47;;;;;;;14.82;13.32;;;;;;;4.88;77.00;98736.31;9701076;28;20120;-72
2020/12/05 18:44:48;;;;;;;15.50;13.90;;;;;;;4.92;76.36;98730.72;9698420;28;20059;-69
2020/12/05 18:49:51;;;;;;;15.57;13.98;;;;;;;4.88;76.86;98739.81;9679967;28;20062;-73
2020/12/05 18:54:52;;;;;;;14.70;13.20;;;;;;;4.88;76.38;98750.38;9685160;28;21500;-72
2020/12/05 18:59:57;;;;;;;16.52;14.73;;;;;;;4.84;76.31;98751.56;9689872;28;20481;-71
2020/12/05 19:04:59;;;;;;;17.92;16.08;;;;;;;4.82;76.49;98761.41;9691119;28;20150;-71
2020/12/05 19:10:00;;;;;;;17.92;16.17;;;;;;;4.87;76.18;98769.78;9722689;28;20142;-72
2020/12/05 19:15:02;;;;;;;16.15;14.52;;;;;;;4.89;76.03;98772.28;9729049;28;20062;-72
2020/12/05 19:20:04;;;;;;;18.83;16.83;;;;;;;4.92;76.36;98762.34;9732784;28;20057;-72
2020/12/05 19:25:05;;;;;;;18.35;16.45;;;;;;;4.95;75.98;98750.69;9712928;28;20111;-72
2020/12/05 19:30:07;;;;;;;18.08;15.68;;;;;;;4.89;76.27;98738.00;9682050;28;20186;-72
2020/12/05 19:35:09;;;;;;;18.60;16.63;;;;;;;4.95;75.80;98734.88;9696309;28;20095;-72
2020/12/05 19:40:10;;;;;;;17.38;15.57;;;;;;;4.93;75.59;98728.91;9681539;28;20043;-71
2020/12/05 19:45:12;;;;;;;19.80;17.70;;;;;;;4.90;75.50;98719.44;9686392;28;20055;-71
2020/12/05 19:50:17;;;;;;;20.30;17.75;;;;;;;4.90;75.78;98710.69;9682848;28;20150;-71
2020/12/05 19:55:19;;;;;;;19.05;17.05;;;;;;;4.89;75.65;98719.56;9689395;28;20071;-72
2020/12/05 20:00:20;;;;;;;18.80;16.80;;;;;;;4.89;75.55;98696.66;9686844;28;20063;-70
2020/12/05 20:05:22;;;;;;;21.85;18.17;;;;;;;4.89;75.63;98683.47;9704098;28;20062;-71
2020/12/05 20:15:25;;;;;;;23.67;19.17;;;;;;;4.80;75.74;98676.31;9698740;28;20150;-71
2020/12/05 20:20:27;;;;;;;23.90;19.10;;;;;;;4.79;75.77;98685.22;9729508;28;20062;-69
2020/12/05 20:25:28;;;;;;;22.52;19.27;;;;;;;4.81;75.64;98696.44;9703586;28;20612;-72
2020/12/05 20:30:29;;;;;;;21.55;18.70;;;;;;;4.87;75.64;98705.66;9706888;28;24371;-73
2020/12/05 20:35:31;;;;;;;21.95;17.88;;;;;;;4.75;76.03;98707.50;9701425;28;20425;-73
2020/12/05 20:40:32;;;;;;;18.85;16.13;;;;;;;4.80;75.68;98697.41;9702970;28;20399;-72
2020/12/05 20:45:33;;;;;;;19.33;17.33;;;;;;;4.75;75.82;98691.69;9681048;28;20063;-73
2020/12/05 20:50:35;;;;;;;18.75;16.67;;;;;;;4.78;75.89;98696.69;9738596;28;21684;-71
2020/12/05 20:55:42;;;;;;;19.85;17.85;;;;;;;4.81;75.80;98685.09;9738767;28;20063;-73
2020/12/05 21:00:43;;;;;;;20.83;17.80;;;;;;;4.76;75.99;98667.84;9754261;28;20061;-70
2020/12/05 21:05:44;;;;;;;18.98;16.38;;;;;;;4.63;76.26;98674.25;9727320;28;21176;-73
2020/12/05 21:10:46;;;;;;;18.52;16.55;;;;;;;4.66;76.29;98695.06;9738675;28;22121;-71
2020/12/05 21:15:47;;;;;;;21.25;18.95;;;;;;;4.83;76.15;98688.41;9700995;28;20065;-69
2020/12/05 21:20:48;;;;;;;21.67;18.70;;;;;;;5.09;75.37;98697.66;9675990;28;22811;-72
2020/12/05 21:25:49;;;;;;;20.02;17.92;;;;;;;5.13;74.16;98700.88;9684084;28;21744;-72
2020/12/05 21:30:51;;;;;;;19.90;17.80;;;;;;;5.00;74.67;98711.63;9699600;28;20055;-70
2020/12/05 21:35:52;;;;;;;20.00;17.85;;;;;;;4.88;75.14;98712.59;9693872;28;20265;-70
2020/12/05 21:40:54;;;;;;;22.45;18.58;;;;;;;4.85;75.30;98702.31;9690903;28;20055;-72
2020/12/05 21:45:56;;;;;;;20.63;18.30;;;;;;;4.78;75.76;98728.34;9696580;28;22608;-71
2020/12/05 21:50:57;;;;;;;21.55;17.48;;;;;;;4.74;75.65;98719.00;9712528;28;20059;-69
2020/12/05 21:55:58;;;;;;;21.48;18.63;;;;;;;4.78;75.82;98728.34;9712335;28;20051;-73
2020/12/05 22:01:00;;;;;;;20.25;18.15;;;;;;;4.78;75.72;98730.97;9702365;28;20055;-71
2020/12/05 22:06:02;;;;;;;21.38;18.33;;;;;;;4.81;75.46;98707.00;9709421;28;20684;-72
2020/12/05 22:11:03;;;;;;;20.35;17.17;;;;;;;4.84;75.04;98663.75;9710002;28;20051;-72
2020/12/05 22:16:05;;;;;;;17.95;14.98;;;;;;;4.62;75.24;98648.84;9674646;28;20538;-72
2020/12/05 22:21:06;;;;;;;15.63;13.48;;;;;;;4.26;76.62;98627.97;9708911;28;20081;-72
2020/12/05 22:26:08;;;;;;;18.58;14.48;;;;;;;4.43;76.51;98621.34;9690612;28;20195;-72
2020/12/05 22:31:10;;;;;;;18.20;14.45;;;;;;;4.49;75.85;98648.97;9678250;28;20063;-71
2020/12/05 22:36:11;;;;;;;17.92;14.95;;;;;;;4.30;76.79;98665.44;9698398;28;20051;-70
2020/12/05 22:41:13;;;;;;;20.48;16.77;;;;;;;4.33;76.59;98673.09;9717968;28;20061;-69
2020/12/05 22:46:16;;;;;;;17.48;14.23;;;;;;;4.45;76.30;98666.84;9735106;28;20741;-72
2020/12/05 22:51:23;;;;;;;19.65;15.10;;;;;;;4.57;75.58;98668.47;9709753;28;20095;-71
2020/12/05 22:56:24;;;;;;;18.35;14.75;;;;;;;4.64;75.54;98691.69;9708134;28;20471;-71
2020/12/05 23:01:26;;;;;;;17.45;14.00;;;;;;;4.67;75.92;98723.09;9721200;28;20059;-71
2020/12/05 23:06:27;;;;;;;17.55;15.55;;;;;;;4.84;74.75;98701.47;9840281;28;20082;-72
2020/12/05 23:11:30;;;;;;;15.77;14.00;;;;;;;4.92;74.59;98704.34;9740551;28;20054;-71
2020/12/05 23:16:31;;;;;;;15.27;13.25;;;;;;;5.02;74.24;98687.75;9738853;28;20109;-71
2020/12/05 23:21:32;;;;;;;18.27;15.05;;;;;;;5.08;74.02;98621.31;9726536;28;20051;-71
2020/12/05 23:26:35;;;;;;;19.20;14.52;;;;;;;5.12;74.22;98609.53;9728183;28;20059;-71
2020/12/05 23:36:58;;;;;;;16.50;13.48;;;;;;;5.10;74.13;98622.88;9729466;28;20079;-71
2020/12/05 23:42:00;;;;;;;16.98;14.88;;;;;;;5.09;74.50;98615.06;9727334;28;20069;-69
2020/12/05 23:47:01;;;;;;;17.33;14.40;;;;;;;4.94;75.29;98596.94;9717813;28;20055;-71
2020/12/05 23:52:03;;;;;;;17.42;14.77;;;;;;;4.87;75.68;98631.84;9732078;28;20386;-71